Time;durP1;ratioP1;P1;durP2;ratioP2;P2;SDS_P1;SDS_P2;PMS_P1;PMS_P2;Temp;Humidity;BMP_temperature;BMP_pressure;BME280_temperature;BME280_humidity;BME280_pressure;Samples;Min_cycle;Max_cycle;Signal;HPM_P1;HPM_P2
2022/03/11 00:00:31;;;;;;;15.02;11.18;;;6.90;74.30;;;;;;5058680;28;20721;-77
2022/03/11 00:02:57;;;;;;;12.32;10.75;;;6.70;74.30;;;;;;5058561;28;20392;-78
2022/03/11 00:05:23;;;;;;;16.73;11.73;;;6.70;74.60;;;;;;5040961;28;20497;-77
2022/03/11 00:07:48;;;;;;;15.65;11.07;;;6.60;74.90;;;;;;5040701;28;20370;-77
2022/03/11 00:10:14;;;;;;;13.75;11.02;;;6.60;75.00;;;;;;5058572;28;20087;-78
2022/03/11 00:12:40;;;;;;;16.40;11.98;;;6.70;75.30;;;;;;5040289;28;20048;-78
2022/03/11 00:15:06;;;;;;;16.48;11.02;;;6.50;75.50;;;;;;5040885;28;20037;-78
2022/03/11 00:17:32;;;;;;;13.80;11.10;;;6.50;75.80;;;;;;5040860;28;20056;-78
2022/03/11 00:19:58;;;;;;;13.93;10.88;;;6.40;75.90;;;;;;5058293;28;20053;-78
2022/03/11 00:22:24;;;;;;;13.60;10.82;;;6.40;76.20;;;;;;5040798;28;20055;-78
2022/03/11 00:24:49;;;;;;;15.20;11.30;;;6.30;76.60;;;;;;5057986;28;20079;-78
2022/03/11 00:27:15;;;;;;;13.70;10.93;;;6.30;77.00;;;;;;5058750;28;20094;-78
2022/03/11 00:29:40;;;;;;;16.25;10.82;;;6.30;77.20;;;;;;5040659;28;20055;-79
2022/03/11 00:32:06;;;;;;;15.55;11.05;;;6.20;77.20;;;;;;5058537;28;20135;-78
2022/03/11 00:34:32;;;;;;;15.32;11.10;;;6.10;77.60;;;;;;5040201;28;20045;-78
2022/03/11 00:36:58;;;;;;;14.30;10.02;;;6.10;77.80;;;;;;5058188;28;20051;-78
2022/03/11 00:39:24;;;;;;;14.93;10.57;;;6.00;78.10;;;;;;5058375;28;20045;-78
2022/03/11 00:41:49;;;;;;;18.48;10.57;;;6.00;78.10;;;;;;5023921;28;20424;-78
2022/03/11 00:44:15;;;;;;;14.65;10.18;;;6.00;78.80;;;;;;5040591;28;20049;-79
2022/03/11 00:46:41;;;;;;;13.88;9.98;;;6.00;79.40;;;;;;5040259;28;20041;-81
2022/03/11 00:49:07;;;;;;;13.07;10.38;;;5.80;79.90;;;;;;5037809;28;20047;-77
2022/03/11 00:51:33;;;;;;;13.05;9.88;;;5.80;80.20;;;;;;5055413;28;20037;-78
2022/03/11 00:53:58;;;;;;;12.05;10.45;;;5.70;80.20;;;;;;5054521;28;20477;-78
2022/03/11 00:56:27;;;;;;;12.57;9.90;;;5.60;80.50;;;;;;5037033;28;20140;-78
2022/03/11 00:58:52;;;;;;;13.05;10.10;;;5.70;81.30;;;;;;5054588;28;20048;-78
2022/03/11 01:01:18;;;;;;;16.90;10.77;;;5.60;81.60;;;;;;5020771;28;20052;-78
2022/03/11 01:03:44;;;;;;;14.45;10.43;;;5.50;81.90;;;;;;5036838;28;20044;-78
2022/03/11 01:06:10;;;;;;;13.05;10.20;;;5.50;82.10;;;;;;5037220;28;20052;-78
2022/03/11 01:08:35;;;;;;;14.48;10.32;;;5.50;82.60;;;;;;5020517;28;20413;-78
2022/03/11 01:11:01;;;;;;;12.80;10.15;;;5.40;82.90;;;;;;5054304;28;20049;-78
2022/03/11 01:13:27;;;;;;;12.70;9.45;;;5.40;83.30;;;;;;5054703;28;20051;-78
2022/03/11 01:15:52;;;;;;;11.82;9.85;;;5.40;83.90;;;;;;5054253;28;20057;-78
2022/03/11 01:18:18;;;;;;;15.32;10.35;;;5.30;84.50;;;;;;5054762;28;20049;-78
2022/03/11 01:20:43;;;;;;;12.82;9.50;;;5.30;84.60;;;;;;5054621;28;20041;-78
2022/03/11 01:23:09;;;;;;;13.55;9.10;;;5.20;85.00;;;;;;5036368;28;20469;-77
2022/03/11 01:25:35;;;;;;;13.60;9.40;;;5.20;85.20;;;;;;5054772;28;20085;-78
2022/03/11 01:28:00;;;;;;;14.30;9.55;;;5.20;85.50;;;;;;5054123;28;20049;-78
2022/03/11 01:30:26;;;;;;;14.60;8.93;;;5.20;86.20;;;;;;5054681;28;20365;-78
2022/03/11 01:32:53;;;;;;;13.23;10.23;;;5.20;86.20;;;;;;5036341;28;20098;-77
2022/03/11 01:35:19;;;;;;;14.15;9.80;;;5.20;86.50;;;;;;5036051;28;20504;-77
2022/03/11 01:37:44;;;;;;;13.77;9.35;;;5.20;86.80;;;;;;5036513;28;20056;-78
2022/03/11 01:40:10;;;;;;;13.07;9.32;;;5.10;87.20;;;;;;5053750;28;20049;-78
2022/03/11 01:42:36;;;;;;;13.23;9.07;;;5.10;87.60;;;;;;5036682;28;20494;-78
2022/03/11 01:45:03;;;;;;;11.73;9.40;;;5.10;87.90;;;;;;5035996;28;20053;-78
2022/03/11 01:47:29;;;;;;;11.52;9.00;;;5.10;87.90;;;;;;5054139;28;20052;-77
2022/03/11 01:49:54;;;;;;;11.20;8.27;;;5.10;88.50;;;;;;5036099;28;20417;-77
2022/03/11 01:52:20;;;;;;;12.15;8.82;;;5.10;88.50;;;;;;5036522;28;20494;-78
2022/03/11 01:54:45;;;;;;;11.23;8.73;;;5.00;89.20;;;;;;5036151;28;20119;-78
2022/03/11 01:57:12;;;;;;;12.93;9.60;;;5.00;89.90;;;;;;5053448;28;20057;-77
2022/03/11 01:59:38;;;;;;;14.88;9.20;;;5.10;90.00;;;;;;5035451;28;20048;-78
2022/03/11 02:02:04;;;;;;;12.18;8.73;;;5.00;90.30;;;;;;5035182;28;20048;-78
2022/03/11 02:04:29;;;;;;;12.02;8.80;;;5.10;90.10;;;;;;5053949;28;20080;-78
2022/03/11 02:06:55;;;;;;;13.95;8.80;;;5.10;90.50;;;;;;5053335;28;20048;-78
2022/03/11 02:09:21;;;;;;;11.05;8.52;;;5.10;90.60;;;;;;5053611;28;20044;-78
2022/03/11 02:11:46;;;;;;;15.30;8.88;;;5.10;90.90;;;;;;5035955;28;20102;-78
2022/03/11 02:14:12;;;;;;;15.00;8.88;;;5.00;91.10;;;;;;5053308;28;20048;-78
2022/03/11 02:16:40;;;;;;;11.82;8.43;;;5.10;91.30;;;;;;5053764;28;20466;-78
2022/03/11 02:19:05;;;;;;;12.65;8.57;;;5.00;91.70;;;;;;5035720;28;20041;-78
2022/03/11 02:21:31;;;;;;;11.65;8.68;;;5.00;92.20;;;;;;5019464;28;20048;-77
2022/03/11 02:23:58;;;;;;;12.13;8.90;;;4.90;92.30;;;;;;5019001;28;20060;-78
2022/03/11 02:26:25;;;;;;;14.55;9.05;;;5.10;92.70;;;;;;5035812;28;20053;-78
2022/03/11 02:28:52;;;;;;;16.88;9.18;;;5.00;92.50;;;;;;5035832;28;20455;-77
2022/03/11 02:31:18;;;;;;;12.80;9.00;;;5.10;92.70;;;;;;5035347;28;20044;-77
2022/03/11 02:33:44;;;;;;;14.25;9.10;;;4.90;92.90;;;;;;5035929;28;20052;-78
2022/03/11 02:36:09;;;;;;;14.25;9.85;;;5.00;93.20;;;;;;5053061;28;20061;-78
2022/03/11 02:38:35;;;;;;;14.10;9.40;;;5.00;93.30;;;;;;5053342;28;20057;-78
2022/03/11 02:41:01;;;;;;;16.45;9.30;;;5.00;93.40;;;;;;5052855;28;20041;-80
2022/03/11 02:43:27;;;;;;;14.90;9.45;;;4.90;93.60;;;;;;5018954;28;20053;-78
2022/03/11 02:45:52;;;;;;;19.23;10.02;;;4.90;93.90;;;;;;5053053;28;20076;-78
2022/03/11 02:48:18;;;;;;;14.60;10.10;;;4.90;93.90;;;;;;5052524;28;20048;-78
2022/03/11 02:50:44;;;;;;;16.77;10.75;;;4.80;94.10;;;;;;5035255;28;20049;-78
2022/03/11 02:53:09;;;;;;;14.90;10.38;;;4.90;94.60;;;;;;5052396;28;20132;-78
2022/03/11 02:55:35;;;;;;;14.20;10.32;;;4.80;94.50;;;;;;5052926;28;20052;-78
2022/03/11 02:58:01;;;;;;;18.42;11.00;;;4.80;94.70;;;;;;5034966;28;20049;-78
2022/03/11 03:00:26;;;;;;;12.10;9.80;;;4.80;94.70;;;;;;5052783;28;20481;-78
2022/03/11 03:02:52;;;;;;;15.57;10.43;;;4.80;95.20;;;;;;5052797;28;20094;-77
2022/03/11 03:05:18;;;;;;;15.93;11.13;;;4.80;95.50;;;;;;5052212;28;20128;-78
2022/03/11 03:07:43;;;;;;;18.05;10.70;;;4.80;95.30;;;;;;5018775;28;20049;-78
2022/03/11 03:10:10;;;;;;;16.00;11.30;;;4.80;95.50;;;;;;5034292;28;20040;-78
2022/03/11 03:12:37;;;;;;;16.38;10.90;;;4.70;95.70;;;;;;5034671;28;20037;-78
2022/03/11 03:15:03;;;;;;;14.73;11.43;;;4.70;96.10;;;;;;5034311;28;20128;-77
2022/03/11 03:17:29;;;;;;;17.38;11.50;;;4.70;96.20;;;;;;5052542;28;20128;-78
2022/03/11 03:19:54;;;;;;;15.98;11.65;;;4.70;96.20;;;;;;5052631;28;20063;-76
2022/03/11 03:22:20;;;;;;;16.35;11.55;;;4.60;96.20;;;;;;5034617;28;20049;-77
2022/03/11 03:24:47;;;;;;;17.77;11.65;;;4.70;96.70;;;;;;5052631;28;20048;-77
2022/03/11 03:27:12;;;;;;;16.70;11.68;;;4.60;96.80;;;;;;5034518;28;20452;-78
2022/03/11 03:29:38;;;;;;;17.50;12.00;;;4.60;96.70;;;;;;5052384;28;20157;-78
2022/03/11 03:32:04;;;;;;;16.35;12.50;;;4.60;97.00;;;;;;5051893;28;20467;-79
2022/03/11 03:34:31;;;;;;;17.98;12.73;;;4.60;97.20;;;;;;5052058;28;20041;-78
2022/03/11 03:36:57;;;;;;;16.85;12.27;;;4.60;97.10;;;;;;5052403;28;20059;-78
2022/03/11 03:39:23;;;;;;;19.33;13.00;;;4.60;97.30;;;;;;5051807;28;20075;-78
2022/03/11 03:41:49;;;;;;;18.08;12.63;;;4.50;97.50;;;;;;5018371;28;20041;-78
2022/03/11 03:44:15;;;;;;;18.15;13.55;;;4.50;97.30;;;;;;5051900;28;20037;-78
2022/03/11 03:46:40;;;;;;;18.00;12.98;;;4.50;97.60;;;;;;5034658;28;20049;-78
2022/03/11 03:49:06;;;;;;;20.88;13.18;;;4.50;97.70;;;;;;5051838;28;20052;-79
2022/03/11 03:51:32;;;;;;;18.50;12.80;;;4.50;97.60;;;;;;5051874;28;20053;-78
2022/03/11 03:53:57;;;;;;;17.30;13.32;;;4.50;97.80;;;;;;5034492;28;20145;-78
2022/03/11 03:56:23;;;;;;;20.20;13.35;;;4.40;97.80;;;;;;5051731;28;20037;-78
2022/03/11 03:58:48;;;;;;;18.83;12.98;;;4.40;98.00;;;;;;5052213;28;20052;-78
2022/03/11 04:01:14;;;;;;;17.92;13.73;;;4.40;98.00;;;;;;5051931;28;20053;-78
2022/03/11 04:03:40;;;;;;;19.30;13.95;;;4.40;97.90;;;;;;5034583;28;20041;-79
2022/03/11 04:06:06;;;;;;;20.70;14.93;;;4.40;97.90;;;;;;5034491;28;20505;-79
2022/03/11 04:08:32;;;;;;;21.50;14.02;;;4.40;98.10;;;;;;5033777;28;20044;-78
2022/03/11 04:10:57;;;;;;;19.13;14.65;;;4.40;98.10;;;;;;5034553;28;20084;-78
2022/03/11 04:13:23;;;;;;;21.70;14.50;;;4.40;98.10;;;;;;5051762;28;20045;-78
2022/03/11 04:15:48;;;;;;;21.75;14.48;;;4.30;98.00;;;;;;5034409;28;20048;-78
2022/03/11 04:18:14;;;;;;;20.85;14.95;;;4.30;98.10;;;;;;5034249;28;20053;-78
2022/03/11 04:20:40;;;;;;;21.15;15.15;;;4.30;98.40;;;;;;5052198;28;20053;-78
2022/03/11 04:23:06;;;;;;;22.17;14.40;;;4.20;98.30;;;;;;5034581;28;20064;-78
2022/03/11 04:25:32;;;;;;;21.17;15.23;;;4.20;98.40;;;;;;5021004;28;20044;-79
2022/03/11 04:27:58;;;;;;;23.02;15.13;;;4.20;98.80;;;;;;5055676;28;20397;-79
2022/03/11 04:30:23;;;;;;;21.30;14.57;;;4.20;98.60;;;;;;5037608;28;20049;-79
2022/03/11 04:32:49;;;;;;;21.98;15.38;;;4.20;98.90;;;;;;5055569;28;20049;-78
2022/03/11 04:35:15;;;;;;;22.70;15.52;;;4.10;99.10;;;;;;5054680;28;20482;-79
2022/03/11 04:37:40;;;;;;;21.85;16.45;;;4.10;99.20;;;;;;5021345;28;20060;-78
2022/03/11 04:40:07;;;;;;;21.42;14.85;;;4.00;99.00;;;;;;5055374;28;20175;-78
2022/03/11 04:42:33;;;;;;;21.10;15.30;;;4.00;99.40;;;;;;5055166;28;20455;-78
2022/03/11 04:44:58;;;;;;;22.50;15.68;;;4.00;99.40;;;;;;5055459;28;20037;-78
2022/03/11 04:47:24;;;;;;;22.27;15.70;;;4.00;99.60;;;;;;5037276;28;20103;-79
2022/03/11 04:49:50;;;;;;;21.38;15.68;;;4.00;99.90;;;;;;5055188;28;20048;-77
2022/03/11 04:52:15;;;;;;;22.05;15.85;;;4.00;99.80;;;;;;5054695;28;20045;-77
2022/03/11 04:54:41;;;;;;;22.70;16.63;;;3.90;99.70;;;;;;5055062;28;20048;-77
2022/03/11 04:57:07;;;;;;;24.48;16.45;;;3.90;99.70;;;;;;5020724;28;20052;-78
2022/03/11 04:59:32;;;;;;;27.00;17.73;;;3.90;99.70;;;;;;5054493;28;20049;-78
2022/03/11 05:01:58;;;;;;;24.08;16.92;;;3.90;99.80;;;;;;5054738;28;20147;-78
2022/03/11 05:04:23;;;;;;;23.95;15.25;;;3.90;99.90;;;;;;5054174;28;20060;-78
2022/03/11 05:06:49;;;;;;;25.05;17.25;;;3.90;99.90;;;;;;5054830;28;20040;-79
2022/03/11 05:09:15;;;;;;;22.88;17.63;;;3.80;99.90;;;;;;5020600;28;20096;-78
2022/03/11 05:11:41;;;;;;;22.17;16.00;;;3.80;99.90;;;;;;5054504;28;20178;-78
2022/03/11 05:14:06;;;;;;;23.98;17.05;;;3.80;99.90;;;;;;5037084;28;20131;-79
2022/03/11 05:16:32;;;;;;;23.77;16.90;;;3.80;99.90;;;;;;5036436;28;20083;-79
2022/03/11 05:18:57;;;;;;;24.52;17.10;;;3.80;99.90;;;;;;5054749;28;20043;-78
2022/03/11 05:21:23;;;;;;;24.90;17.88;;;3.80;99.90;;;;;;5054328;28;20183;-78
2022/03/11 05:23:49;;;;;;;25.35;17.90;;;3.70;99.90;;;;;;5036652;28;20238;-78
2022/03/11 05:26:28;;;;;;;23.55;17.25;;;3.70;99.90;;;;;;5054514;28;20049;-79
2022/03/11 05:28:58;;;;;;;22.67;16.30;;;3.70;99.90;;;;;;5038989;28;20059;-79
2022/03/11 05:31:27;;;;;;;21.92;17.40;;;3.70;99.90;;;;;;5036317;28;20116;-79
2022/03/11 05:33:52;;;;;;;25.95;17.13;;;3.70;99.90;;;;;;5020507;28;20049;-79
2022/03/11 05:36:18;;;;;;;26.08;17.95;;;3.60;99.90;;;;;;5053712;28;20379;-79
2022/03/11 05:38:44;;;;;;;22.60;17.38;;;3.60;99.90;;;;;;5036053;28;20056;-78
2022/03/11 05:41:09;;;;;;;25.90;17.75;;;3.60;99.90;;;;;;5054301;28;20045;-79
2022/03/11 05:43:36;;;;;;;24.25;17.25;;;3.60;99.90;;;;;;5035910;28;20473;-79
2022/03/11 05:46:03;;;;;;;25.88;18.75;;;3.60;99.90;;;;;;5054236;28;20452;-79
2022/03/11 05:48:28;;;;;;;25.15;18.23;;;3.60;99.90;;;;;;5053976;28;20041;-78
2022/03/11 05:50:54;;;;;;;24.42;17.27;;;3.60;99.90;;;;;;5036580;28;20427;-78
2022/03/11 05:53:20;;;;;;;24.60;17.85;;;3.60;99.90;;;;;;5054279;28;20090;-78
2022/03/11 05:55:45;;;;;;;23.83;17.58;;;3.50;99.90;;;;;;5053802;28;20407;-78
2022/03/11 05:58:11;;;;;;;26.60;18.15;;;3.50;99.90;;;;;;5036396;28;20366;-78
2022/03/11 06:00:37;;;;;;;29.98;18.17;;;3.60;99.90;;;;;;5035817;28;20370;-78
2022/03/11 06:03:02;;;;;;;24.13;17.67;;;3.50;99.90;;;;;;5036372;28;20049;-78
2022/03/11 06:05:28;;;;;;;27.77;18.65;;;3.40;99.90;;;;;;5035888;28;20063;-79
2022/03/11 06:07:54;;;;;;;23.73;18.45;;;3.50;99.90;;;;;;5036494;28;20048;-78
2022/03/11 06:10:20;;;;;;;24.70;17.00;;;3.50;99.90;;;;;;5053832;28;20060;-79
2022/03/11 06:12:46;;;;;;;24.35;18.20;;;3.50;99.90;;;;;;5053242;28;20045;-78
2022/03/11 06:15:11;;;;;;;26.08;18.05;;;3.50;99.90;;;;;;5053622;28;20045;-78
2022/03/11 06:17:37;;;;;;;25.02;17.75;;;3.60;99.90;;;;;;5035564;28;20080;-78
2022/03/11 06:20:04;;;;;;;24.35;18.70;;;3.40;99.90;;;;;;5035718;28;20040;-77
2022/03/11 06:22:30;;;;;;;24.25;18.60;;;3.40;99.90;;;;;;5019465;28;20094;-77
2022/03/11 06:24:55;;;;;;;23.13;17.65;;;3.40;99.90;;;;;;5053579;28;20456;-78
2022/03/11 06:27:24;;;;;;;25.23;17.80;;;3.50;99.90;;;;;;5053629;28;20448;-78
2022/03/11 06:29:50;;;;;;;25.20;17.90;;;3.40;99.90;;;;;;5053123;28;20052;-79
2022/03/11 06:32:16;;;;;;;25.80;19.08;;;3.40;99.90;;;;;;5035587;28;20440;-78
2022/03/11 06:34:41;;;;;;;25.27;17.25;;;3.40;99.90;;;;;;5034707;28;20052;-77
2022/03/11 06:37:07;;;;;;;24.80;18.75;;;3.60;99.90;;;;;;5035625;28;20059;-78
2022/03/11 06:39:32;;;;;;;25.02;18.35;;;3.40;99.90;;;;;;5052708;28;20050;-78
2022/03/11 06:41:58;;;;;;;24.45;18.70;;;3.40;99.90;;;;;;5035660;28;20052;-78
2022/03/11 06:44:24;;;;;;;24.15;17.40;;;3.40;99.90;;;;;;5053150;28;20132;-78
2022/03/11 06:46:50;;;;;;;24.15;18.13;;;3.50;99.90;;;;;;5034147;28;20470;-78
2022/03/11 06:49:15;;;;;;;24.77;17.73;;;3.50;99.90;;;;;;5035266;28;20040;-79
2022/03/11 06:51:41;;;;;;;27.65;18.40;;;3.60;99.60;;;;;;5034828;28;20132;-79
2022/03/11 06:54:07;;;;;;;26.90;17.90;;;3.60;99.50;;;;;;5035254;28;20041;-78
2022/03/11 06:56:35;;;;;;;27.67;18.67;;;3.70;99.30;;;;;;5052143;28;20528;-78
2022/03/11 06:59:04;;;;;;;26.85;17.88;;;3.60;99.30;;;;;;5018767;28;20447;-78
2022/03/11 07:01:30;;;;;;;22.20;16.92;;;3.70;99.00;;;;;;5053096;28;20052;-78
2022/03/11 07:03:56;;;;;;;25.98;18.83;;;3.70;98.80;;;;;;5034896;28;20397;-78
2022/03/11 07:06:21;;;;;;;26.48;18.00;;;3.70;98.70;;;;;;5034964;28;20033;-78
2022/03/11 07:08:47;;;;;;;24.08;18.40;;;3.80;98.70;;;;;;5052563;28;20045;-78
2022/03/11 07:11:13;;;;;;;24.55;17.80;;;3.80;98.50;;;;;;5034865;28;20041;-77
2022/03/11 07:13:38;;;;;;;25.50;18.30;;;3.80;98.30;;;;;;5051863;28;20037;-78
2022/03/11 07:16:05;;;;;;;24.48;17.42;;;3.90;98.10;;;;;;5052568;28;20049;-78
2022/03/11 07:18:31;;;;;;;23.77;17.58;;;4.00;97.90;;;;;;5035041;28;20060;-78
2022/03/11 07:20:56;;;;;;;26.40;17.65;;;4.00;97.50;;;;;;5034367;28;20400;-78
2022/03/11 07:23:22;;;;;;;24.13;17.88;;;4.00;97.30;;;;;;5034841;28;20492;-78
2022/03/11 07:25:48;;;;;;;21.85;17.45;;;4.10;97.30;;;;;;5052086;28;20041;-78
2022/03/11 07:28:14;;;;;;;24.73;18.60;;;4.00;97.10;;;;;;5052562;28;20058;-78
2022/03/11 07:30:40;;;;;;;25.60;17.10;;;4.10;97.10;;;;;;5051831;28;20424;-78
2022/03/11 07:33:07;;;;;;;23.45;17.67;;;4.10;96.90;;;;;;5018263;28;20441;-78
2022/03/11 07:35:33;;;;;;;22.83;17.00;;;4.10;96.80;;;;;;5051758;28;20582;-78
2022/03/11 07:37:59;;;;;;;26.25;17.95;;;4.10;96.70;;;;;;5051932;28;20048;-78
2022/03/11 07:40:24;;;;;;;23.65;17.48;;;4.20;96.70;;;;;;5052256;28;20048;-78
2022/03/11 07:42:50;;;;;;;24.88;18.30;;;4.30;96.40;;;;;;5051981;28;20049;-78
2022/03/11 07:45:16;;;;;;;23.63;17.83;;;4.20;96.10;;;;;;5052588;28;20067;-77
2022/03/11 07:47:41;;;;;;;26.98;17.67;;;4.30;96.10;;;;;;5051850;28;20105;-77
2022/03/11 07:50:08;;;;;;;24.45;17.40;;;4.40;96.00;;;;;;5051694;28;20051;-77
2022/03/11 07:52:34;;;;;;;24.90;18.27;;;4.40;95.70;;;;;;5034578;28;20092;-78
2022/03/11 07:55:00;;;;;;;22.75;17.45;;;4.50;95.60;;;;;;5051901;28;20052;-79
2022/03/11 07:57:26;;;;;;;26.17;17.48;;;4.50;95.40;;;;;;5035126;28;20092;-79
2022/03/11 07:59:51;;;;;;;25.15;17.25;;;4.50;95.40;;;;;;5055583;28;20067;-79
2022/03/11 08:02:17;;;;;;;27.42;17.40;;;4.60;95.30;;;;;;5056149;28;20048;-79
2022/03/11 08:04:42;;;;;;;24.90;17.48;;;4.60;94.90;;;;;;5055600;28;20059;-79
2022/03/11 08:07:11;;;;;;;22.88;17.27;;;4.70;94.60;;;;;;5021852;28;20076;-79
2022/03/11 08:09:38;;;;;;;24.48;17.50;;;4.70;94.30;;;;;;5022195;28;20055;-79
2022/03/11 08:12:04;;;;;;;26.08;17.10;;;4.80;93.90;;;;;;5038129;28;20107;-79
2022/03/11 08:14:30;;;;;;;22.02;17.00;;;4.80;94.00;;;;;;5055921;28;20063;-79
2022/03/11 08:16:56;;;;;;;25.90;17.95;;;4.90;94.00;;;;;;5054343;28;20052;-79
2022/03/11 08:19:24;;;;;;;24.27;18.17;;;4.90;93.60;;;;;;5038083;28;20135;-79
2022/03/11 08:21:51;;;;;;;25.15;17.38;;;5.00;93.60;;;;;;5055539;28;20041;-78
2022/03/11 08:24:17;;;;;;;22.75;16.92;;;5.00;93.30;;;;;;5055729;28;20079;-79
2022/03/11 08:26:43;;;;;;;24.65;17.50;;;5.10;93.30;;;;;;5037384;28;20477;-79
2022/03/11 08:29:09;;;;;;;25.63;18.33;;;5.10;93.30;;;;;;5021640;28;20040;-78
2022/03/11 08:31:34;;;;;;;26.95;17.67;;;5.10;93.10;;;;;;5038017;28;20041;-78
2022/03/11 08:34:00;;;;;;;24.25;17.88;;;5.20;92.80;;;;;;5055129;28;20053;-79
2022/03/11 08:36:26;;;;;;;22.33;17.70;;;5.30;92.60;;;;;;5037198;28;20052;-78
2022/03/11 08:38:52;;;;;;;23.92;17.77;;;5.30;92.60;;;;;;5055221;28;20478;-78
2022/03/11 08:41:19;;;;;;;24.00;17.55;;;5.30;92.20;;;;;;5055833;28;20049;-78
2022/03/11 08:43:49;;;;;;;23.13;17.67;;;5.40;92.00;;;;;;5054806;28;20045;-79
2022/03/11 08:46:14;;;;;;;23.17;17.02;;;5.40;91.80;;;;;;5037409;28;20485;-78
2022/03/11 08:48:41;;;;;;;23.50;18.02;;;5.50;91.80;;;;;;5037325;28;20095;-79
2022/03/11 08:51:07;;;;;;;22.08;16.13;;;5.60;91.20;;;;;;5054949;28;20056;-78
2022/03/11 08:53:32;;;;;;;27.08;17.85;;;5.70;91.00;;;;;;5037466;28;20041;-78
2022/03/11 08:55:58;;;;;;;25.35;17.13;;;5.70;90.80;;;;;;5037109;28;20173;-78
2022/03/11 08:58:24;;;;;;;23.13;17.33;;;5.80;90.50;;;;;;5055366;28;20056;-78
2022/03/11 09:00:49;;;;;;;23.63;17.48;;;5.80;90.10;;;;;;5020807;28;20179;-79
2022/03/11 09:03:15;;;;;;;21.85;17.23;;;5.90;90.00;;;;;;5055020;28;20049;-78
2022/03/11 09:05:40;;;;;;;26.05;17.60;;;5.90;89.20;;;;;;5037480;28;20041;-79
2022/03/11 09:08:09;;;;;;;24.98;17.38;;;6.00;88.50;;;;;;5054806;28;20048;-78
2022/03/11 09:10:35;;;;;;;22.73;17.08;;;6.00;88.10;;;;;;5036786;28;20045;-77
2022/03/11 09:13:01;;;;;;;23.70;17.23;;;6.10;88.00;;;;;;5054714;28;20052;-78
2022/03/11 09:15:27;;;;;;;22.17;17.20;;;6.10;87.20;;;;;;5055057;28;20179;-77
2022/03/11 09:17:52;;;;;;;24.35;17.52;;;6.10;86.50;;;;;;5054547;28;20127;-79
2022/03/11 09:20:18;;;;;;;24.17;17.50;;;6.20;87.00;;;;;;5037149;28;20049;-79
2022/03/11 09:22:44;;;;;;;27.45;18.02;;;6.20;86.40;;;;;;5037161;28;20048;-78
2022/03/11 09:25:10;;;;;;;23.63;17.27;;;6.30;85.90;;;;;;5036648;28;20183;-78
2022/03/11 09:27:36;;;;;;;23.00;16.80;;;6.30;85.80;;;;;;5037066;28;20053;-78
2022/03/11 09:30:03;;;;;;;24.70;17.15;;;6.40;85.30;;;;;;5036703;28;20397;-79
2022/03/11 09:32:29;;;;;;;23.75;18.20;;;6.50;83.50;;;;;;5037156;28;20048;-78
2022/03/11 09:34:55;;;;;;;23.83;17.17;;;6.60;84.00;;;;;;5053922;28;20037;-78
2022/03/11 09:37:20;;;;;;;23.08;18.50;;;6.60;83.10;;;;;;5054711;28;20595;-79
2022/03/11 09:39:46;;;;;;;31.85;17.52;;;6.70;83.00;;;;;;5054524;28;20400;-79
2022/03/11 09:42:12;;;;;;;22.48;17.23;;;6.80;81.40;;;;;;5054104;28;20131;-79
2022/03/11 09:44:38;;;;;;;22.35;17.40;;;7.00;80.50;;;;;;5036885;28;20056;-79
2022/03/11 09:47:04;;;;;;;23.80;17.30;;;7.00;80.40;;;;;;5036434;28;20053;-79
2022/03/11 09:49:35;;;;;;;25.42;18.05;;;7.10;79.40;;;;;;5036725;28;20048;-79
2022/03/11 09:52:03;;;;;;;20.42;15.93;;;7.10;78.20;;;;;;5037084;28;20405;-79
2022/03/11 09:54:29;;;;;;;26.23;16.73;;;7.20;76.70;;;;;;5036758;28;20400;-78
2022/03/11 09:56:55;;;;;;;24.48;17.80;;;7.30;77.10;;;;;;5019709;28;20049;-79
2022/03/11 09:59:21;;;;;;;25.45;17.25;;;7.30;77.20;;;;;;5036494;28;20399;-79
2022/03/11 10:01:46;;;;;;;23.08;17.63;;;7.30;76.50;;;;;;5036356;28;20055;-78
2022/03/11 10:04:12;;;;;;;22.33;17.58;;;7.40;76.80;;;;;;5053673;28;20175;-79
2022/03/11 10:06:45;;;;;;;24.58;17.08;;;7.50;76.20;;;;;;5036315;28;20044;-79
2022/03/11 10:09:17;;;;;;;24.60;18.00;;;7.50;75.60;;;;;;5053715;28;20412;-78
2022/03/11 10:11:42;;;;;;;27.88;17.70;;;7.60;74.20;;;;;;5053898;28;20045;-78
2022/03/11 10:14:08;;;;;;;27.58;17.90;;;7.60;75.20;;;;;;5035598;28;20147;-79
2022/03/11 10:16:34;;;;;;;24.05;17.13;;;7.70;75.20;;;;;;5053771;28;20064;-79
2022/03/11 10:19:04;;;;;;;24.30;18.30;;;7.70;74.90;;;;;;5035816;28;20045;-79
2022/03/11 10:21:46;;;;;;;21.20;17.10;;;7.70;75.10;;;;;;5052801;28;20111;-79
2022/03/11 10:24:16;;;;;;;23.52;17.48;;;7.90;73.30;;;;;;5035472;28;20088;-79
2022/03/11 10:26:44;;;;;;;22.23;17.50;;;7.90;74.20;;;;;;5019504;28;20037;-79
2022/03/11 10:29:17;;;;;;;21.50;17.23;;;7.90;73.60;;;;;;5035463;28;20100;-79
2022/03/11 10:31:45;;;;;;;22.50;16.58;;;8.00;72.10;;;;;;5053633;28;20045;-79
2022/03/11 10:34:25;;;;;;;23.77;17.02;;;8.10;71.50;;;;;;5019243;28;20052;-78
2022/03/11 10:37:07;;;;;;;20.13;15.73;;;8.20;67.80;;;;;;5035364;28;20053;-78
2022/03/11 10:39:36;;;;;;;22.70;17.35;;;8.20;66.70;;;;;;5035524;28;20091;-78
2022/03/11 10:42:16;;;;;;;23.77;17.20;;;8.30;68.40;;;;;;5053045;28;20041;-79
2022/03/11 10:45:03;;;;;;;21.30;16.60;;;8.30;65.90;;;;;;5053341;28;20103;-79
2022/03/11 10:47:30;;;;;;;24.00;16.83;;;8.30;66.40;;;;;;5053385;28;20049;-79
2022/03/11 10:50:04;;;;;;;21.50;15.90;;;8.30;67.50;;;;;;5035716;28;20378;-79
2022/03/11 10:52:33;;;;;;;21.33;17.15;;;8.40;67.80;;;;;;5053339;28;20055;-78
2022/03/11 10:54:59;;;;;;;26.45;18.55;;;8.50;66.70;;;;;;5019135;28;20051;-79
2022/03/11 10:57:38;;;;;;;23.17;17.42;;;8.60;67.80;;;;;;5034911;28;20044;-77
2022/03/11 11:00:16;;;;;;;21.60;17.55;;;8.70;66.30;;;;;;5052789;28;20068;-79
2022/03/11 11:02:46;;;;;;;21.98;17.55;;;8.80;66.40;;;;;;5053095;28;20052;-78
2022/03/11 11:05:12;;;;;;;22.67;16.73;;;8.80;65.90;;;;;;5034982;28;20448;-78
2022/03/11 11:07:40;;;;;;;21.83;17.73;;;8.90;66.50;;;;;;5035362;28;20049;-79
2022/03/11 11:10:06;;;;;;;24.90;18.08;;;8.90;66.00;;;;;;5018568;28;20041;-79
2022/03/11 11:12:32;;;;;;;21.92;17.88;;;9.00;66.10;;;;;;5035176;28;20071;-79
2022/03/11 11:14:58;;;;;;;24.75;17.70;;;9.00;65.60;;;;;;5035187;28;20045;-78
2022/03/11 11:17:24;;;;;;;22.65;17.70;;;9.00;65.50;;;;;;5034532;28;20118;-79
2022/03/11 11:19:49;;;;;;;24.17;17.75;;;9.20;64.10;;;;;;5035018;28;20037;-78
2022/03/11 11:22:15;;;;;;;22.80;17.45;;;9.20;63.30;;;;;;5018262;28;20541;-79
2022/03/11 11:24:41;;;;;;;22.13;17.33;;;9.20;63.90;;;;;;5018702;28;20389;-78
2022/03/11 11:27:06;;;;;;;23.30;16.75;;;9.30;64.10;;;;;;5034686;28;20439;-79
2022/03/11 11:29:33;;;;;;;21.80;16.52;;;9.40;63.50;;;;;;5052754;28;20108;-78
2022/03/11 11:32:00;;;;;;;23.20;17.25;;;9.40;63.90;;;;;;5052400;28;20045;-79
2022/03/11 11:34:33;;;;;;;25.23;17.77;;;9.60;63.40;;;;;;5002000;28;20189;-78
2022/03/11 11:37:00;;;;;;;25.27;17.67;;;9.70;62.80;;;;;;5034737;28;20068;-78
2022/03/11 11:39:27;;;;;;;23.00;18.00;;;9.70;62.30;;;;;;5052159;28;20044;-79
2022/03/11 11:41:57;;;;;;;21.35;16.85;;;9.80;62.00;;;;;;5052574;28;20049;-79
2022/03/11 11:44:36;;;;;;;21.98;17.67;;;9.90;61.60;;;;;;5052122;28;20366;-79
2022/03/11 11:47:13;;;;;;;23.48;18.00;;;9.90;61.10;;;;;;5052641;28;20049;-79
2022/03/11 11:49:55;;;;;;;24.33;18.33;;;10.00;61.30;;;;;;5035827;28;20057;-79
2022/03/11 11:52:35;;;;;;;22.58;17.20;;;10.10;61.50;;;;;;5034984;28;20485;-79
2022/03/11 11:55:17;;;;;;;22.25;17.50;;;10.10;60.90;;;;;;5035551;28;20041;-79
2022/03/11 11:57:43;;;;;;;23.52;18.50;;;10.20;60.40;;;;;;5018874;28;20447;-79
2022/03/11 12:00:32;;;;;;;20.42;16.70;;;10.20;60.20;;;;;;5034788;28;20053;-79
2022/03/11 12:02:59;;;;;;;19.45;17.10;;;10.20;58.90;;;;;;5018475;28;20056;-78
2022/03/11 12:05:44;;;;;;;22.52;17.38;;;10.20;59.30;;;;;;5017890;28;20136;-79
2022/03/11 12:08:31;;;;;;;24.45;17.40;;;10.30;58.40;;;;;;5052319;28;20049;-79
2022/03/11 12:10:57;;;;;;;21.17;16.15;;;10.30;59.10;;;;;;5052254;28;20083;-78
2022/03/11 12:13:50;;;;;;;20.95;16.42;;;10.30;58.60;;;;;;5051691;28;20041;-77
2022/03/11 12:16:18;;;;;;;22.42;16.35;;;10.40;57.80;;;;;;5015198;28;20427;-77
2022/03/11 12:18:44;;;;;;;20.75;16.48;;;10.40;58.40;;;;;;5018180;28;20456;-78
2022/03/11 12:21:39;;;;;;;21.05;16.50;;;10.50;58.10;;;;;;5034759;28;20378;-79
2022/03/11 12:24:33;;;;;;;21.40;15.98;;;10.60;56.10;;;;;;5034708;28;20480;-79
2022/03/11 12:27:00;;;;;;;23.30;16.50;;;10.60;55.40;;;;;;5052119;28;20413;-79
2022/03/11 12:29:35;;;;;;;21.67;15.82;;;10.70;56.70;;;;;;5051662;28;20433;-78
2022/03/11 12:32:06;;;;;;;21.40;16.58;;;10.70;55.70;;;;;;5002544;28;20379;-79
2022/03/11 12:34:31;;;;;;;21.52;16.45;;;10.80;56.30;;;;;;5034483;28;20045;-79
2022/03/11 12:36:57;;;;;;;22.25;15.65;;;10.80;56.30;;;;;;5017496;28;20132;-78